Burt, Iowa
Current Conditions -  °F | °C
As of 11:35 PM on Monday 26 Jan 2015 (Local Time) from KAXA Reporting Station
Broken Clouds Broken Clouds  
Wind Chill: 27°   Ceiling: 1700
Heat Index: 36°   Visibility: 10mi
Dew Point: 34°   Wind: 14mph
Humidity: 93%   Direction: 340°NNW
Pressure: 30"   Gusts: 21mph
Location:  43.2°N, 94.22°W
Report Text: KAXA 270535Z AUTO 34012G18KT 10SM BKN017 02/01 A3000 RMK AO2
Loading
Personal Weather Stations






























Interactive Weather Map New forecast layout! Learn more

10-Day Weather Forecast

Advertisements
Track Severe Weather on mobile